Pickens, Mississippi
Current Conditions -  °F | °C
As of 5:54 AM on Sunday 23 Nov 2014 (Local Time) from KJAN Reporting Station
Light Rain Light Rain  
Wind Chill: 61°   Ceiling: 500
Heat Index: 61°   Visibility: 10mi
Dew Point: 59°   Wind: 9mph
Humidity: 93%   Direction: 130°SE
Pressure: 29.75"   Gusts: NA
Location:  32.88°N, 89.97°W
Report Text: KJAN 231154Z 13008KT 10SM -RA OVC005 16/15 A2975 RMK AO2 RAB52 SLP071 P0000 60000 T01610150 10167 20161 56022
Loading
Personal Weather Stations






























Interactive Weather Map New forecast layout! Learn more

10-Day Weather Forecast

Advertisements
Track Severe Weather on mobile